Time;durP1;ratioP1;P1;durP2;ratioP2;P2;SDS_P1;SDS_P2;PMS_P1;PMS_P2;Temp;Humidity;BMP_temperature;BMP_pressure;BME280_temperature;BME280_humidity;BME280_pressure;Samples;Min_cycle;Max_cycle;Signal;HPM_P1;HPM_P2
2022/02/28 00:01:24;;;;;;;;;;;;;;;2.10;82.29;103229.53;15451301;28;20085;-56
2022/02/28 00:08:57;;;;;;;1999.90;999.90;;;;;;;2.25;81.51;103221.84;15446799;28;19932;-59
2022/02/28 00:16:30;;;;;;;;;;;;;;;2.15;81.16;103204.94;15445609;28;20174;-57
2022/02/28 00:24:03;;;;;;;1999.90;999.90;;;;;;;2.40;80.63;103210.56;15429244;28;19928;-56
2022/02/28 00:31:36;;;;;;;1999.90;999.90;;;;;;;2.71;79.75;103202.38;15477643;28;20042;-57
2022/02/28 00:39:09;;;;;;;1999.90;999.90;;;;;;;2.53;79.45;103207.78;15446776;28;20061;-57
2022/02/28 00:46:41;;;;;;;;;;;;;;;2.55;78.46;103205.63;15423363;28;20046;-59
2022/02/28 00:54:15;;;;;;;1999.90;999.90;;;;;;;2.23;79.44;103218.47;15424458;28;20354;-59
2022/02/28 01:01:47;;;;;;;1999.90;999.90;;;;;;;2.40;77.79;103205.91;15419504;28;20071;-59
2022/02/28 01:09:21;;;;;;;1999.90;999.90;;;;;;;2.57;77.07;103206.25;15458087;28;20046;-56
2022/02/28 01:16:53;;;;;;;;;;;;;;;2.55;77.17;103197.38;15455189;28;20051;-58
2022/02/28 01:24:26;;;;;;;1999.90;999.90;;;;;;;2.30;78.71;103200.88;15451164;28;19922;-59
2022/02/28 01:31:58;;;;;;;;;;;;;;;2.35;78.09;103200.19;15435688;28;20070;-56
2022/02/28 01:39:32;;;;;;;1999.90;999.90;;;;;;;2.00;78.33;103196.94;15428921;28;19929;-56
2022/02/28 01:47:04;;;;;;;;;;;;;;;2.64;76.51;103190.53;15432402;28;20046;-56
2022/02/28 01:54:37;;;;;;;1999.90;999.90;;;;;;;2.20;77.94;103194.97;15437054;28;20007;-56
2022/02/28 02:02:09;;;;;;;;;;;;;;;2.63;76.90;103180.56;15410605;28;20046;-59
2022/02/28 02:09:43;;;;;;;1999.90;999.90;;;;;;;2.73;77.36;103183.72;15453932;28;19942;-58
2022/02/28 02:17:15;;;;;;;;;;;;;;;2.79;77.10;103187.47;15408958;28;20045;-58
2022/02/28 02:24:49;;;;;;;1999.90;999.90;;;;;;;2.45;77.19;103192.31;15403959;28;20457;-58
2022/02/28 02:32:21;;;;;;;1999.90;999.90;;;;;;;2.63;77.53;103190.75;15410852;28;20411;-58
2022/02/28 02:39:58;;;;;;;1999.90;999.90;;;;;;;2.78;76.18;103183.03;15388759;28;20047;-57
2022/02/28 02:47:30;;;;;;;1999.90;999.90;;;;;;;2.89;76.11;103183.16;15412262;28;20137;-58
2022/02/28 02:55:12;;;;;;;1999.90;999.90;;;;;;;2.83;76.02;103172.19;15448475;28;20046;-59
2022/02/28 03:02:44;;;;;;;;;;;;;;;2.92;76.10;103157.06;15458815;28;20137;-58
2022/02/28 03:10:18;;;;;;;1999.90;999.90;;;;;;;2.85;76.25;103159.03;15437760;28;20012;-56
2022/02/28 03:17:52;;;;;;;1999.90;999.90;;;;;;;2.85;75.49;103153.50;15450105;28;20051;-57
2022/02/28 03:25:26;;;;;;;1999.90;999.90;;;;;;;2.72;75.52;103126.88;15441611;28;20038;-56
2022/02/28 03:33:04;;;;;;;1999.90;999.90;;;;;;;2.55;75.69;103126.53;15441794;28;20082;-57
2022/02/28 03:40:38;;;;;;;1999.90;999.90;;;;;;;2.42;75.38;103123.03;15427242;28;20101;-60
2022/02/28 03:48:11;;;;;;;1999.90;999.90;;;;;;;2.38;74.46;103124.50;15463762;28;20144;-59
2022/02/28 03:56:06;;;;;;;1999.90;999.90;;;;;;;2.22;74.33;103104.66;15453736;28;20046;-58
2022/02/28 04:03:39;;;;;;;1999.90;999.90;;;;;;;2.46;73.31;103099.44;15442000;28;20081;-56
2022/02/28 04:11:12;;;;;;;1999.90;999.90;;;;;;;2.26;74.47;103113.34;15455039;23;20555;-62
2022/02/28 04:18:45;;;;;;;1999.90;999.90;;;;;;;1.99;75.66;103124.47;15387047;28;20055;-61
2022/02/28 04:26:44;;;;;;;1999.90;999.90;;;;;;;2.22;75.12;103121.19;15415638;28;20041;-62
2022/02/28 04:34:16;;;;;;;1999.90;999.90;;;;;;;2.30;74.15;103123.72;15379872;28;20335;-63
2022/02/28 04:41:50;;;;;;;1999.90;999.90;;;;;;;2.59;73.39;103126.94;15397596;28;20042;-62
2022/02/28 04:49:22;;;;;;;;;;;;;;;2.65;71.94;103109.50;15417982;28;20086;-64
2022/02/28 04:57:03;;;;;;;1999.90;999.90;;;;;;;2.66;73.04;103113.13;15402407;28;19934;-63
2022/02/28 05:04:36;;;;;;;1999.90;999.90;;;;;;;2.15;73.35;103114.88;15404100;28;20043;-63
2022/02/28 05:12:10;;;;;;;1999.90;999.90;;;;;;;2.11;73.53;103119.13;15385026;28;20074;-63
2022/02/28 05:19:42;;;;;;;1999.90;999.90;;;;;;;2.05;73.63;103124.66;15419996;28;20102;-62
2022/02/28 05:27:17;;;;;;;1999.90;999.90;;;;;;;2.08;73.14;103132.47;15407540;28;20093;-64
2022/02/28 05:34:51;;;;;;;1999.90;999.90;;;;;;;2.15;72.83;103136.06;15422766;28;20051;-63
2022/02/28 05:42:31;;;;;;;1999.90;999.90;;;;;;;2.12;73.38;103145.59;15397579;28;20042;-62
2022/02/28 05:50:04;;;;;;;1999.90;999.90;;;;;;;2.63;71.10;103146.66;15424695;28;20397;-63
2022/02/28 05:57:39;;;;;;;1999.90;999.90;;;;;;;2.88;70.10;103153.06;15422322;28;20094;-63
2022/02/28 06:05:12;;;;;;;1999.90;999.90;;;;;;;3.15;69.32;103153.72;15388813;28;20082;-63
2022/02/28 06:12:45;;;;;;;1999.90;999.90;;;;;;;2.72;70.46;103157.19;15407869;28;20162;-63
2022/02/28 06:20:17;;;;;;;1999.90;999.90;;;;;;;2.41;70.14;103152.50;15412547;28;20047;-63
2022/02/28 06:27:53;;;;;;;1999.90;999.90;;;;;;;2.30;71.33;103155.94;15406530;28;20138;-62
2022/02/28 06:35:25;;;;;;;1999.90;999.90;;;;;;;2.42;70.84;103156.94;15407007;28;20137;-63
2022/02/28 06:42:58;;;;;;;1999.90;999.90;;;;;;;2.81;69.91;103144.84;15412104;28;20047;-64
2022/02/28 06:50:31;;;;;;;1999.90;999.90;;;;;;;2.66;69.78;103157.22;15422056;28;20105;-62
2022/02/28 06:58:04;;;;;;;1999.90;999.90;;;;;;;2.86;69.12;103169.00;15420964;28;20050;-63
2022/02/28 07:05:36;;;;;;;1999.90;999.90;;;;;;;2.89;69.94;103180.41;15425555;28;20078;-62
2022/02/28 07:13:10;;;;;;;1999.90;999.90;;;;;;;2.53;71.93;103194.00;15426870;28;20074;-62
2022/02/28 07:20:43;;;;;;;1999.90;999.90;;;;;;;2.98;69.98;103202.22;15434619;28;20073;-61
2022/02/28 07:28:17;;;;;;;1999.90;999.90;;;;;;;3.29;69.53;103199.44;15435446;28;20049;-62
2022/02/28 07:35:49;;;;;;;1999.90;999.90;;;;;;;2.75;71.04;103209.16;15434667;28;20054;-63
2022/02/28 07:43:22;;;;;;;1999.90;999.90;;;;;;;3.03;70.12;103222.56;15432568;28;20062;-63
2022/02/28 07:50:54;;;;;;;1999.90;999.90;;;;;;;2.83;70.31;103224.59;15433339;28;20151;-62
2022/02/28 07:58:28;;;;;;;1999.90;999.90;;;;;;;3.26;68.11;103222.00;15432455;28;20050;-62
2022/02/28 08:06:00;;;;;;;1999.90;999.90;;;;;;;3.67;67.04;103218.69;15432749;28;20035;-63
2022/02/28 08:13:34;;;;;;;1999.90;999.90;;;;;;;3.38;68.61;103246.94;15430425;28;20142;-64
2022/02/28 08:21:06;;;;;;;1999.90;999.90;;;;;;;3.31;68.23;103240.63;15432077;28;20532;-63
2022/02/28 08:28:40;;;;;;;1999.90;999.90;;;;;;;3.47;68.17;103245.63;15432574;28;20130;-63
2022/02/28 08:36:12;;;;;;;1999.90;999.90;;;;;;;3.41;69.03;103249.25;15431803;28;20515;-63
2022/02/28 08:43:46;;;;;;;1999.90;999.90;;;;;;;4.57;65.67;103249.38;15431540;28;20039;-63
2022/02/28 08:51:18;;;;;;;1999.90;999.90;;;;;;;4.46;64.40;103247.41;15430225;28;20047;-63
2022/02/28 08:58:51;;;;;;;1999.90;999.90;;;;;;;4.32;65.36;103240.34;15428271;28;20393;-63
2022/02/28 09:06:23;;;;;;;;;;;;;;;5.02;62.69;103242.66;15421055;28;20050;-63
2022/02/28 09:13:57;;;;;;;1999.90;999.90;;;;;;;4.63;62.40;103250.41;15429316;28;19929;-62
2022/02/28 09:21:29;;;;;;;;;;;;;;;6.23;59.22;103239.38;15429616;28;20519;-63
2022/02/28 09:29:05;;;;;;;1999.90;999.90;;;;;;;5.93;60.32;103250.59;15428443;28;19965;-63
2022/02/28 09:36:37;;;;;;;1999.90;999.90;;;;;;;7.49;55.31;103264.41;15425377;28;20070;-63
2022/02/28 09:44:15;;;;;;;;;;;;;;;7.30;55.51;103254.63;15427973;28;20057;-61
2022/02/28 09:52:10;;;;;;;1999.90;999.90;;;;;;;6.57;57.52;103264.53;15408478;28;19948;-63
2022/02/28 09:59:59;;;;;;;1999.90;999.90;;;;;;;7.59;54.67;103260.97;15426867;28;20113;-62
2022/02/28 10:07:32;;;;;;;1999.90;999.90;;;;;;;10.65;50.26;103269.75;15425832;28;20046;-63
2022/02/28 10:15:08;;;;;;;1999.90;999.90;;;;;;;11.75;46.05;103261.06;15427871;28;20081;-64
2022/02/28 10:22:40;;;;;;;1999.90;999.90;;;;;;;11.03;45.51;103278.84;15424317;28;20334;-63
2022/02/28 10:30:29;;;;;;;1999.90;999.90;;;;;;;11.10;45.81;103276.63;15426193;28;20042;-63
2022/02/28 10:38:23;;;;;;;1999.90;999.90;;;;;;;12.65;43.62;103261.25;15428157;28;20050;-62
2022/02/28 10:45:58;;;;;;;1999.90;999.90;;;;;;;12.45;42.32;103261.31;15424976;28;20145;-61
2022/02/28 10:53:31;;;;;;;1999.90;999.90;;;;;;;12.45;42.86;103255.72;15435154;28;20047;-63
2022/02/28 11:01:06;;;;;;;1999.90;999.90;;;;;;;13.33;40.09;103257.00;15437123;28;20074;-59
2022/02/28 11:08:42;;;;;;;1999.90;999.90;;;;;;;12.93;41.31;103253.28;15442177;28;20134;-62
2022/02/28 11:16:16;;;;;;;1999.90;999.90;;;;;;;13.11;41.44;103248.97;15426474;28;20054;-64
2022/02/28 11:23:48;;;;;;;1999.90;999.90;;;;;;;13.22;39.99;103254.25;15440277;28;20043;-64
2022/02/28 11:31:24;;;;;;;1999.90;999.90;;;;;;;14.45;38.60;103240.00;15436851;28;20046;-61
2022/02/28 11:39:11;;;;;;;1999.90;999.90;;;;;;;14.04;38.66;103234.81;15436722;28;20102;-64
2022/02/28 11:46:47;;;;;;;1999.90;999.90;;;;;;;15.00;37.34;103215.13;15435436;28;20073;-62
2022/02/28 11:54:28;;;;;;;1999.90;999.90;;;;;;;14.61;37.64;103221.84;15436180;28;20122;-60
2022/02/28 12:02:05;;;;;;;1999.90;999.90;;;;;;;13.49;40.07;103216.50;15433614;28;20082;-61
2022/02/28 12:09:46;;;;;;;1999.90;999.90;;;;;;;12.82;38.28;103210.47;15434342;28;20110;-62
2022/02/28 12:17:34;;;;;;;1999.90;999.90;;;;;;;14.31;35.82;103208.97;15431833;28;20376;-61
2022/02/28 12:25:07;;;;;;;1999.90;999.90;;;;;;;15.41;35.32;103198.47;15433045;28;20043;-62
2022/02/28 12:32:51;;;;;;;1999.90;999.90;;;;;;;15.29;33.02;103184.88;15421521;28;20459;-64
2022/02/28 12:40:23;;;;;;;1999.90;999.90;;;;;;;15.81;32.88;103182.06;15432253;28;20114;-63
2022/02/28 12:47:58;;;;;;;1999.90;999.90;;;;;;;17.27;31.49;103187.72;15432430;28;20448;-62
2022/02/28 12:55:30;;;;;;;1999.90;999.90;;;;;;;16.37;30.05;103178.19;15432486;28;20305;-64
2022/02/28 13:03:04;;;;;;;1999.90;999.90;;;;;;;18.51;28.76;103176.50;15429764;28;20055;-64
2022/02/28 13:10:36;;;;;;;;;;;;;;;17.24;28.13;103168.63;15431332;28;20055;-62
2022/02/28 13:18:10;;;;;;;1999.90;999.90;;;;;;;18.54;26.28;103169.34;15430448;28;19976;-63
2022/02/28 13:25:48;;;;;;;1999.90;999.90;;;;;;;17.07;27.81;103176.94;15428965;28;20059;-64
2022/02/28 13:33:22;;;;;;;1999.90;999.90;;;;;;;18.05;24.17;103174.16;15430884;28;20055;-63
2022/02/28 13:40:55;;;;;;;1999.90;999.90;;;;;;;12.35;34.60;103155.75;15429959;28;20047;-65
2022/02/28 13:48:30;;;;;;;1999.90;999.90;;;;;;;10.99;36.33;103144.44;15430752;28;20610;-61
2022/02/28 13:56:03;;;;;;;1999.90;999.90;;;;;;;9.44;39.13;103144.22;15432391;28;20046;-65
2022/02/28 14:03:36;;;;;;;1999.90;999.90;;;;;;;9.79;37.84;103144.47;15428225;28;20042;-64
2022/02/28 14:11:12;;;;;;;1999.90;999.90;;;;;;;9.36;37.21;103156.69;15418841;28;20307;-62
2022/02/28 14:19:05;;;;;;;1999.90;999.90;;;;;;;9.30;38.66;103166.16;15402127;28;20051;-63
2022/02/28 14:26:41;;;;;;;1999.90;999.90;;;;;;;9.81;37.90;103149.81;15440834;28;20098;-62
2022/02/28 14:34:48;;;;;;;1999.90;999.90;;;;;;;9.35;38.54;103143.03;15445967;28;20066;-64
2022/02/28 14:42:20;;;;;;;1999.90;999.90;;;;;;;8.94;40.30;103159.38;15406573;28;20130;-63
2022/02/28 14:49:54;;;;;;;1999.90;999.90;;;;;;;8.39;41.42;103158.50;15429202;28;20121;-61
2022/02/28 14:57:26;;;;;;;1999.90;999.90;;;;;;;8.15;42.26;103156.19;15435832;28;20047;-61
2022/02/28 15:04:59;;;;;;;1999.90;999.90;;;;;;;8.48;41.18;103146.91;15427971;28;20254;-61
2022/02/28 15:12:33;;;;;;;1999.90;999.90;;;;;;;8.16;40.75;103133.69;15410882;28;20059;-58
2022/02/28 15:20:07;;;;;;;1999.90;999.90;;;;;;;8.35;40.92;103123.09;15422709;28;20498;-62
2022/02/28 15:27:40;;;;;;;1999.90;999.90;;;;;;;8.16;41.66;103122.56;15402667;28;20051;-66
2022/02/28 15:35:13;;;;;;;1999.90;999.90;;;;;;;8.18;40.76;103112.00;15434721;28;20507;-61
2022/02/28 15:42:46;;;;;;;1999.90;999.90;;;;;;;7.96;41.20;103105.59;15427111;28;20039;-66
2022/02/28 15:50:20;;;;;;;1999.90;999.90;;;;;;;7.86;40.99;103111.03;15447766;28;20098;-61
2022/02/28 15:57:55;;;;;;;1999.90;999.90;;;;;;;7.92;41.90;103110.84;15423879;28;20384;-63
2022/02/28 16:05:29;;;;;;;1999.90;999.90;;;;;;;7.91;41.63;103102.75;15428263;28;20075;-61
2022/02/28 16:13:02;;;;;;;1999.90;999.90;;;;;;;7.75;43.68;103098.91;15407898;28;20043;-61
2022/02/28 16:20:36;;;;;;;1999.90;999.90;;;;;;;7.82;43.37;103097.66;15392585;28;20041;-62
2022/02/28 16:28:08;;;;;;;1999.90;999.90;;;;;;;7.77;43.29;103088.38;15404634;28;20047;-63
2022/02/28 16:35:41;;;;;;;1999.90;999.90;;;;;;;7.64;43.83;103075.69;15411675;28;20050;-62
2022/02/28 16:43:15;;;;;;;1999.90;999.90;;;;;;;7.37;44.49;103092.22;15430243;28;20046;-63
2022/02/28 16:50:48;;;;;;;1999.90;999.90;;;;;;;6.79;45.51;103093.50;15392252;28;20042;-64
2022/02/28 16:58:20;;;;;;;1999.90;999.90;;;;;;;6.94;45.20;103090.13;15409535;28;20043;-59
2022/02/28 17:05:55;;;;;;;1999.90;999.90;;;;;;;6.91;46.32;103091.47;15411603;28;20475;-64
2022/02/28 17:13:27;;;;;;;1999.90;999.90;;;;;;;6.80;46.94;103091.56;15417184;28;20471;-64
2022/02/28 17:21:01;;;;;;;1999.90;999.90;;;;;;;6.56;47.75;103110.25;15411048;28;20125;-63
2022/02/28 17:28:34;;;;;;;1999.90;999.90;;;;;;;6.51;48.28;103118.47;15410796;28;20136;-64
2022/02/28 17:36:08;;;;;;;1999.90;999.90;;;;;;;6.26;49.73;103114.13;15419005;28;20080;-64
2022/02/28 17:43:44;;;;;;;;;;;;;;;6.11;50.79;103112.94;15415228;28;20051;-64
2022/02/28 17:51:18;;;;;;;1999.90;999.90;;;;;;;6.29;50.95;103121.09;15417538;28;19930;-64
2022/02/28 17:58:50;;;;;;;;;;;;;;;6.17;50.56;103121.13;15402132;28;20503;-64
2022/02/28 18:06:23;;;;;;;1999.90;999.90;;;;;;;5.73;52.11;103129.00;15374793;28;19968;-62
2022/02/28 18:13:56;;;;;;;1999.90;999.90;;;;;;;5.59;51.59;103135.84;15419477;28;20046;-61
2022/02/28 18:21:29;;;;;;;1999.90;999.90;;;;;;;5.61;52.21;103142.00;15396443;28;20077;-62
2022/02/28 18:29:02;;;;;;;1999.90;999.90;;;;;;;4.82;54.88;103146.09;15439300;28;20337;-62
2022/02/28 18:36:40;;;;;;;1999.90;999.90;;;;;;;5.34;52.17;103146.34;15432059;28;20412;-62
2022/02/28 18:44:12;;;;;;;1999.90;999.90;;;;;;;5.02;49.45;103146.63;15376947;28;20476;-65
2022/02/28 18:51:45;;;;;;;1999.90;999.90;;;;;;;4.61;50.69;103156.59;15398153;28;20054;-62
2022/02/28 18:59:17;;;;;;;1999.90;999.90;;;;;;;4.71;49.35;103153.28;15445940;28;20059;-63
2022/02/28 19:06:51;;;;;;;1999.90;999.90;;;;;;;4.72;48.03;103159.66;15396092;28;20268;-63
2022/02/28 19:14:24;;;;;;;1999.90;999.90;;;;;;;4.64;46.68;103152.50;15442779;28;20496;-61
2022/02/28 19:21:58;;;;;;;1999.90;999.90;;;;;;;4.11;48.06;103152.34;15412216;28;20043;-64
2022/02/28 19:29:30;;;;;;;1999.90;999.90;;;;;;;3.89;48.28;103147.28;15423113;28;20043;-65
2022/02/28 19:37:04;;;;;;;1999.90;999.90;;;;;;;3.53;49.36;103141.69;15409260;28;20039;-63
2022/02/28 19:44:36;;;;;;;1999.90;999.90;;;;;;;3.45;48.99;103135.41;15403140;28;20036;-65
2022/02/28 19:52:11;;;;;;;1999.90;999.90;;;;;;;3.45;49.05;103135.41;15394010;28;20135;-64
2022/02/28 19:59:44;;;;;;;1999.90;999.90;;;;;;;3.26;49.40;103132.84;15438501;28;20082;-65
2022/02/28 20:07:17;;;;;;;1999.90;999.90;;;;;;;3.28;49.55;103139.81;15448393;28;20031;-62
2022/02/28 20:14:49;;;;;;;1999.90;999.90;;;;;;;3.05;49.25;103129.38;15402381;28;20047;-64
2022/02/28 20:22:23;;;;;;;1999.90;999.90;;;;;;;3.26;49.29;103127.31;15433161;28;20047;-60
2022/02/28 20:29:56;;;;;;;1999.90;999.90;;;;;;;3.17;49.76;103116.53;15416283;28;20043;-59
2022/02/28 20:37:29;;;;;;;1999.90;999.90;;;;;;;2.98;50.31;103119.47;15432576;28;20054;-64
2022/02/28 20:45:01;;;;;;;1999.90;999.90;;;;;;;2.76;50.82;103119.81;15431854;28;20133;-62
2022/02/28 20:52:37;;;;;;;1999.90;999.90;;;;;;;2.57;51.50;103116.13;15429905;28;20367;-62
2022/02/28 21:00:10;;;;;;;1999.90;999.90;;;;;;;2.61;51.65;103122.06;15425331;28;20175;-63
2022/02/28 21:07:44;;;;;;;1999.90;999.90;;;;;;;2.71;51.75;103111.41;15421046;28;20090;-62
2022/02/28 21:15:16;;;;;;;1999.90;999.90;;;;;;;2.56;52.25;103113.59;15429180;28;20055;-64
2022/02/28 21:22:57;;;;;;;1999.90;999.90;;;;;;;1.96;53.07;103111.13;15422702;28;20046;-61
2022/02/28 21:30:30;;;;;;;1999.90;999.90;;;;;;;2.25;53.01;103120.75;15411635;28;20043;-64
2022/02/28 21:38:04;;;;;;;1999.90;999.90;;;;;;;2.16;53.07;103123.97;15391397;28;20045;-62
2022/02/28 21:45:36;;;;;;;;;;;;;;;1.78;53.52;103118.41;15369570;28;20090;-63
2022/02/28 21:53:10;;;;;;;1999.90;999.90;;;;;;;1.95;53.59;103120.44;15385907;28;19992;-63
2022/02/28 22:00:42;;;;;;;1999.90;999.90;;;;;;;1.92;54.22;103107.13;15406457;28;20389;-61
2022/02/28 22:08:15;;;;;;;1999.90;999.90;;;;;;;1.96;53.76;103113.88;15380375;28;20280;-62
2022/02/28 22:15:48;;;;;;;1999.90;999.90;;;;;;;1.67;54.61;103107.00;15401369;28;20110;-59
2022/02/28 22:23:21;;;;;;;1999.90;999.90;;;;;;;1.67;54.53;103112.50;15408576;28;20066;-61
2022/02/28 22:30:53;;;;;;;;;;;;;;;1.86;54.74;103113.47;15388826;28;20396;-61
2022/02/28 22:38:26;;;;;;;1999.90;999.90;;;;;;;1.81;54.50;103113.28;15401980;28;19926;-62
2022/02/28 22:45:58;;;;;;;;;;;;;;;1.59;55.70;103098.97;15417098;28;20039;-62
2022/02/28 22:53:32;;;;;;;1999.90;999.90;;;;;;;1.18;56.91;103092.88;15415735;28;19965;-60
2022/02/28 23:01:13;;;;;;;;;;;;;;;1.67;55.83;103084.97;15378583;28;20053;-61
2022/02/28 23:24:27;;;;;;;1999.90;999.90;;;;;;;1.13;57.04;103088.00;15393142;28;20043;-60
2022/02/28 23:31:59;;;;;;;1999.90;999.90;;;;;;;1.12;58.29;103087.16;15410299;28;20437;-60
2022/02/28 23:39:32;;;;;;;1999.90;999.90;;;;;;;0.90;57.76;103088.44;15387607;28;20047;-61
2022/02/28 23:47:05;;;;;;;;;;;;;;;1.04;58.04;103089.28;15395488;28;20038;-60
2022/02/28 23:54:38;;;;;;;1999.90;999.90;;;;;;;0.97;57.50;103080.19;15397561;28;20356;-60
